createdAt,value
2023-05-15T00:00:18.631Z,5.75
2023-05-15T00:03:05.706Z,5.25
2023-05-15T00:05:33.125Z,4.82
2023-05-15T00:08:00.162Z,5.75
2023-05-15T00:10:27.431Z,5.78
2023-05-15T00:12:55.703Z,5.43
2023-05-15T00:15:23.098Z,5.53
2023-05-15T00:17:50.265Z,5.55
2023-05-15T00:20:17.503Z,5.93
2023-05-15T00:22:44.589Z,5.30
2023-05-15T00:25:11.965Z,5.50
2023-05-15T00:27:38.950Z,6.00
2023-05-15T00:30:07.173Z,5.40
2023-05-15T00:32:34.157Z,5.63
2023-05-15T00:35:01.555Z,5.22
2023-05-15T00:37:30.264Z,5.25
2023-05-15T00:39:57.595Z,5.88
2023-05-15T00:42:25.885Z,6.00
2023-05-15T00:44:53.896Z,6.45
2023-05-15T00:47:24.053Z,6.38
2023-05-15T00:49:52.955Z,7.05
2023-05-15T00:52:21.252Z,6.55
2023-05-15T00:54:48.530Z,6.70
2023-05-15T00:57:17.230Z,6.60
2023-05-15T00:59:46.732Z,6.50
2023-05-15T01:02:18.835Z,7.22
2023-05-15T01:04:46.535Z,6.55
2023-05-15T01:07:13.826Z,6.85
2023-05-15T01:09:46.051Z,7.18
2023-05-15T01:12:16.794Z,7.65
2023-05-15T01:14:44.078Z,8.02
2023-05-15T01:17:11.104Z,7.78
2023-05-15T01:19:41.979Z,7.75
2023-05-15T01:22:38.882Z,8.13
2023-05-15T01:25:47.369Z,8.60
2023-05-15T01:28:23.864Z,7.43
2023-05-15T01:30:57.527Z,7.55
2023-05-15T01:33:39.152Z,8.90
2023-05-15T01:36:30.497Z,8.20
2023-05-15T01:39:03.053Z,7.80
2023-05-15T01:41:45.783Z,7.22
2023-05-15T01:44:22.554Z,7.70
2023-05-15T01:46:54.740Z,7.47
2023-05-15T01:49:27.389Z,7.78
2023-05-15T01:52:14.829Z,6.93
2023-05-15T01:54:42.711Z,6.20
2023-05-15T01:57:11.703Z,6.82
2023-05-15T01:59:41.410Z,6.85
2023-05-15T02:02:12.383Z,6.95
2023-05-15T02:04:41.836Z,6.32
2023-05-15T02:07:09.982Z,6.70
2023-05-15T02:09:38.415Z,6.45
2023-05-15T02:12:07.458Z,6.75
2023-05-15T02:14:37.007Z,6.35
2023-05-15T02:17:04.599Z,6.40
2023-05-15T02:19:31.566Z,7.00
2023-05-15T02:21:59.447Z,6.78
2023-05-15T02:24:26.500Z,6.45
2023-05-15T02:27:16.675Z,6.60
2023-05-15T02:30:14.479Z,5.45
2023-05-15T02:32:47.910Z,6.43
2023-05-15T02:35:56.078Z,6.20
2023-05-15T02:38:38.206Z,6.22
2023-05-15T02:41:08.048Z,6.50
2023-05-15T02:43:37.403Z,6.28
2023-05-15T02:46:07.703Z,6.35
2023-05-15T02:48:39.832Z,6.70
2023-05-15T02:51:07.727Z,7.00
2023-05-15T02:53:40.952Z,6.95
2023-05-15T02:56:09.016Z,6.35
2023-05-15T02:58:37.008Z,6.85
2023-05-15T03:01:04.774Z,6.63
2023-05-15T03:03:32.111Z,6.57
2023-05-15T03:06:01.216Z,7.45
2023-05-15T03:08:28.881Z,5.85
2023-05-15T03:10:55.921Z,5.95
2023-05-15T03:13:23.970Z,6.25
2023-05-15T03:15:52.068Z,6.40
2023-05-15T03:18:19.724Z,6.30
2023-05-15T03:20:49.214Z,6.75
2023-05-15T03:23:16.718Z,6.78
2023-05-15T03:25:43.770Z,5.95
2023-05-15T03:28:11.684Z,6.38
2023-05-15T03:30:38.746Z,6.45
2023-05-15T03:33:06.497Z,6.63
2023-05-15T03:35:33.587Z,6.47
2023-05-15T03:38:01.713Z,6.25
2023-05-15T03:40:28.815Z,7.13
2023-05-15T03:42:56.347Z,7.45
2023-05-15T03:45:24.317Z,6.88
2023-05-15T03:47:54.633Z,7.00
2023-05-15T03:50:27.120Z,7.10
2023-05-15T03:52:54.602Z,7.30
2023-05-15T03:55:22.229Z,7.90
2023-05-15T03:57:49.767Z,7.43
2023-05-15T04:00:18.450Z,7.78
2023-05-15T04:02:47.891Z,7.20
2023-05-15T04:05:15.490Z,7.43
2023-05-15T04:07:43.284Z,7.15
2023-05-15T04:10:10.557Z,7.43
2023-05-15T04:12:37.901Z,7.72
2023-05-15T04:15:23.669Z,8.40
2023-05-15T04:17:53.623Z,7.60
2023-05-15T04:20:26.017Z,7.68
2023-05-15T04:22:54.041Z,7.93
2023-05-15T04:25:21.113Z,7.50
2023-05-15T04:27:49.428Z,8.25
2023-05-15T04:30:17.030Z,7.88
2023-05-15T04:32:44.500Z,8.20
2023-05-15T04:35:13.510Z,7.80
2023-05-15T04:37:42.812Z,8.73
2023-05-15T04:40:10.846Z,7.78
2023-05-15T04:42:39.575Z,8.60
2023-05-15T04:45:08.539Z,7.60
2023-05-15T04:47:36.678Z,7.47
2023-05-15T04:50:04.366Z,7.72
2023-05-15T04:52:32.404Z,7.35
2023-05-15T04:54:59.679Z,7.57
2023-05-15T04:57:27.538Z,7.32
2023-05-15T04:59:54.605Z,7.45
2023-05-15T05:02:23.454Z,6.65
2023-05-15T05:04:53.311Z,6.65
2023-05-15T05:07:21.538Z,7.13
2023-05-15T05:09:48.551Z,6.80
2023-05-15T05:12:15.862Z,6.97
2023-05-15T05:14:44.690Z,7.30
2023-05-15T05:17:12.196Z,6.50
2023-05-15T05:19:39.226Z,5.50
2023-05-15T05:22:07.636Z,6.53
2023-05-15T05:24:44.296Z,5.90
2023-05-15T05:27:15.159Z,5.70
2023-05-15T05:29:47.412Z,5.57
2023-05-15T05:32:14.839Z,5.80
2023-05-15T05:34:42.169Z,5.35
2023-05-15T05:37:09.329Z,5.07
2023-05-15T05:39:36.712Z,5.32
2023-05-15T05:42:04.017Z,5.30
2023-05-15T05:44:31.599Z,5.35
2023-05-15T05:46:58.641Z,5.00
2023-05-15T05:49:25.944Z,5.63
2023-05-15T05:51:52.945Z,5.10
2023-05-15T05:54:20.607Z,5.50
2023-05-15T05:56:47.874Z,5.38
2023-05-15T05:59:16.403Z,5.80
2023-05-15T06:01:44.175Z,5.97
2023-05-15T06:04:11.751Z,5.30
2023-05-15T06:06:38.697Z,4.97
2023-05-15T06:09:06.010Z,6.15
2023-05-15T06:11:33.341Z,5.28
2023-05-15T06:14:00.777Z,6.10
2023-05-15T06:16:27.823Z,5.45
2023-05-15T06:18:55.241Z,5.63
2023-05-15T06:21:22.382Z,6.07
2023-05-15T06:23:49.570Z,5.88
2023-05-15T06:26:16.659Z,5.70
2023-05-15T06:28:43.955Z,6.22
2023-05-15T06:31:10.975Z,6.03
2023-05-15T06:33:38.270Z,5.93
2023-05-15T06:36:05.465Z,5.93
2023-05-15T06:38:32.637Z,5.45
2023-05-15T06:40:59.590Z,5.45
2023-05-15T06:43:26.780Z,5.50
2023-05-15T06:45:53.929Z,5.20
2023-05-15T06:48:21.267Z,4.88
2023-05-15T06:50:48.356Z,4.85
2023-05-15T06:53:17.786Z,5.05
2023-05-15T06:55:44.759Z,4.88
2023-05-15T06:58:12.307Z,5.10
2023-05-15T07:00:39.286Z,5.65
2023-05-15T07:03:06.643Z,4.95
2023-05-15T07:05:33.672Z,4.80
2023-05-15T07:08:01.059Z,5.53
2023-05-15T07:10:28.325Z,6.10
2023-05-15T07:12:55.894Z,5.28
2023-05-15T07:15:23.016Z,5.63
2023-05-15T07:17:50.417Z,6.05
2023-05-15T07:20:17.654Z,5.88
2023-05-15T07:22:55.773Z,5.68
2023-05-15T07:25:25.725Z,5.90
2023-05-15T07:27:53.806Z,5.15
2023-05-15T07:30:21.082Z,5.07
2023-05-15T07:32:48.469Z,5.30
2023-05-15T07:35:16.081Z,5.28
2023-05-15T07:37:43.567Z,5.93
2023-05-15T07:40:11.276Z,5.95
2023-05-15T07:42:40.012Z,5.28
2023-05-15T07:45:08.183Z,5.20
2023-05-15T07:47:36.079Z,5.50
2023-05-15T07:50:03.614Z,5.63
2023-05-15T07:52:31.078Z,6.18
2023-05-15T07:54:58.252Z,6.07
2023-05-15T07:57:26.458Z,5.82
2023-05-15T07:59:53.534Z,6.32
2023-05-15T08:02:20.819Z,6.35
2023-05-15T08:04:47.938Z,6.13
2023-05-15T08:07:15.484Z,5.78
2023-05-15T08:09:42.514Z,6.00
2023-05-15T08:12:22.213Z,6.00
2023-05-15T08:14:56.654Z,5.05
2023-05-15T08:17:25.617Z,5.55
2023-05-15T08:19:53.089Z,5.45
2023-05-15T08:22:20.374Z,5.28
2023-05-15T08:24:47.844Z,4.80
2023-05-15T08:27:15.064Z,4.97
2023-05-15T08:29:42.068Z,5.00
2023-05-15T08:32:10.626Z,4.72
2023-05-15T08:34:38.854Z,4.78
2023-05-15T08:37:07.112Z,5.13
2023-05-15T08:39:34.163Z,4.38
2023-05-15T08:42:35.271Z,5.20
2023-05-15T08:45:03.125Z,4.50
2023-05-15T08:47:38.770Z,4.15
2023-05-15T08:50:15.519Z,4.55
2023-05-15T08:52:47.121Z,4.75
2023-05-15T08:55:16.400Z,4.82
2023-05-15T08:57:45.229Z,5.28
2023-05-15T09:00:14.797Z,4.50
2023-05-15T09:02:43.269Z,4.32
2023-05-15T09:05:10.908Z,4.18
2023-05-15T09:07:44.994Z,4.93
2023-05-15T09:10:14.251Z,4.45
2023-05-15T09:12:47.044Z,4.25
2023-05-15T09:15:22.103Z,3.90
2023-05-15T09:17:51.411Z,4.28
2023-05-15T09:20:44.700Z,4.20
2023-05-15T09:23:28.287Z,4.25
2023-05-15T09:25:56.959Z,3.92
2023-05-15T09:28:34.002Z,4.45
2023-05-15T09:31:05.872Z,4.30
2023-05-15T09:33:39.863Z,4.05
2023-05-15T09:36:09.417Z,4.70
2023-05-15T09:38:48.542Z,4.95
2023-05-15T09:41:25.025Z,4.80
2023-05-15T09:43:52.937Z,4.95
2023-05-15T09:46:20.533Z,4.72
2023-05-15T09:48:48.022Z,4.72
2023-05-15T09:51:19.901Z,4.65
2023-05-15T09:53:52.928Z,4.55
2023-05-15T09:56:20.478Z,4.50
2023-05-15T09:58:59.572Z,4.97
2023-05-15T10:01:27.786Z,5.60
2023-05-15T10:04:05.667Z,7.00
2023-05-15T10:06:43.201Z,5.10
2023-05-15T10:09:11.804Z,4.10
2023-05-15T10:11:51.348Z,4.43
2023-05-15T10:14:20.567Z,4.38
2023-05-15T10:16:48.343Z,5.13
2023-05-15T10:19:15.940Z,3.80
2023-05-15T10:21:42.903Z,4.55
2023-05-15T10:24:12.582Z,3.65
2023-05-15T10:26:43.618Z,3.70
2023-05-15T10:29:13.165Z,4.22
2023-05-15T10:31:41.605Z,4.30
2023-05-15T10:34:11.081Z,4.15
2023-05-15T10:36:39.223Z,3.78
2023-05-15T10:39:08.204Z,3.47
2023-05-15T10:41:40.384Z,4.20
2023-05-15T10:44:08.439Z,3.83
2023-05-15T10:46:37.477Z,3.33
2023-05-15T10:49:05.548Z,4.00
2023-05-15T10:51:36.105Z,3.50
2023-05-15T10:54:03.906Z,3.88
2023-05-15T10:56:32.996Z,3.30
2023-05-15T10:59:11.249Z,3.15
2023-05-15T11:01:41.349Z,3.63
2023-05-15T11:04:13.935Z,3.78
2023-05-15T11:06:50.070Z,3.55
2023-05-15T11:09:27.746Z,3.83
2023-05-15T11:12:00.322Z,3.42
2023-05-15T11:14:30.592Z,3.30
2023-05-15T11:17:00.144Z,4.32
2023-05-15T11:19:57.666Z,3.40
2023-05-15T11:22:36.084Z,3.10
2023-05-15T11:25:14.386Z,3.30
2023-05-15T11:27:45.412Z,3.53
2023-05-15T11:30:22.203Z,3.47
2023-05-15T11:33:10.147Z,3.97
2023-05-15T11:35:45.942Z,3.58
2023-05-15T11:38:25.019Z,3.40
2023-05-15T11:41:03.068Z,3.78
2023-05-15T11:43:31.975Z,3.45
2023-05-15T11:46:08.666Z,3.30
2023-05-15T11:48:41.519Z,3.30
2023-05-15T11:51:26.010Z,3.95
2023-05-15T11:53:55.778Z,4.28
2023-05-15T11:56:28.646Z,4.80
2023-05-15T11:58:58.687Z,4.80
2023-05-15T12:01:26.379Z,5.30
2023-05-15T12:03:54.797Z,5.38
2023-05-15T12:06:23.044Z,4.80
2023-05-15T12:08:53.238Z,5.25
2023-05-15T12:11:24.955Z,4.95
2023-05-15T12:13:54.166Z,4.43
2023-05-15T12:16:28.956Z,4.78
2023-05-15T12:18:59.758Z,4.18
2023-05-15T12:21:27.855Z,4.78
2023-05-15T12:24:07.630Z,3.63
2023-05-15T12:26:36.119Z,3.60
2023-05-15T12:29:05.090Z,3.83
2023-05-15T12:31:35.784Z,4.57
2023-05-15T12:34:03.544Z,4.90
2023-05-15T12:36:31.766Z,3.90
2023-05-15T12:39:05.428Z,3.80
2023-05-15T12:41:33.219Z,3.38
2023-05-15T12:44:00.473Z,3.63
2023-05-15T12:46:31.997Z,3.80
2023-05-15T12:48:59.881Z,3.35
2023-05-15T12:51:29.967Z,3.63
2023-05-15T12:53:58.369Z,3.95
2023-05-15T12:56:26.394Z,3.67
2023-05-15T12:58:54.679Z,3.95
2023-05-15T13:01:22.600Z,3.83
2023-05-15T13:03:51.211Z,3.30
2023-05-15T13:06:18.968Z,3.17
2023-05-15T13:08:47.726Z,3.50
2023-05-15T13:11:18.321Z,3.97
2023-05-15T13:13:48.191Z,4.10
2023-05-15T13:16:36.804Z,3.85
2023-05-15T13:19:04.572Z,3.55
2023-05-15T13:21:32.154Z,4.25
2023-05-15T13:23:59.331Z,4.55
2023-05-15T13:26:26.792Z,4.00
2023-05-15T13:28:53.887Z,3.63
2023-05-15T13:31:21.801Z,3.60
2023-05-15T13:33:49.428Z,4.10
2023-05-15T13:36:16.870Z,4.68
2023-05-15T13:38:43.826Z,4.45
2023-05-15T13:41:11.317Z,3.78
2023-05-15T13:43:38.233Z,3.60
2023-05-15T13:46:05.591Z,3.72
2023-05-15T13:48:32.558Z,3.10
2023-05-15T13:50:59.893Z,3.03
2023-05-15T13:53:27.225Z,2.95
2023-05-15T13:55:55.436Z,2.63
2023-05-15T13:58:22.688Z,2.40
2023-05-15T14:00:50.205Z,2.22
2023-05-15T14:03:17.273Z,2.83
2023-05-15T14:05:44.691Z,2.55
2023-05-15T14:08:12.208Z,3.88
2023-05-15T14:10:39.518Z,3.22
2023-05-15T14:13:06.552Z,3.63
2023-05-15T14:15:33.788Z,3.17
2023-05-15T14:18:01.487Z,3.08
2023-05-15T14:20:28.879Z,3.38
2023-05-15T14:22:56.229Z,3.70
2023-05-15T14:25:24.420Z,3.25
2023-05-15T14:27:51.584Z,3.35
2023-05-15T14:30:19.120Z,3.20
2023-05-15T14:32:46.429Z,3.20
2023-05-15T14:35:13.877Z,3.33
2023-05-15T14:37:40.975Z,3.65
2023-05-15T14:40:09.548Z,3.20
2023-05-15T14:42:36.541Z,3.20
2023-05-15T14:45:05.258Z,3.35
2023-05-15T14:47:32.461Z,3.33
2023-05-15T14:49:59.735Z,2.60
2023-05-15T14:52:26.862Z,2.50
2023-05-15T14:55:07.818Z,3.33
2023-05-15T14:57:36.072Z,3.10
2023-05-15T15:00:06.056Z,3.60
2023-05-15T15:02:33.376Z,2.90
2023-05-15T15:05:00.901Z,3.53
2023-05-15T15:07:33.187Z,2.92
2023-05-15T15:10:00.461Z,3.00
2023-05-15T15:12:27.711Z,3.08
2023-05-15T15:14:54.935Z,2.70
2023-05-15T15:17:21.933Z,3.05
2023-05-15T15:19:49.209Z,2.88
2023-05-15T15:22:16.248Z,3.13
2023-05-15T15:24:43.435Z,3.00
2023-05-15T15:27:10.531Z,3.53
2023-05-15T15:29:37.785Z,3.30
2023-05-15T15:32:05.191Z,2.83
2023-05-15T15:34:32.550Z,3.17
2023-05-15T15:36:59.504Z,2.88
2023-05-15T15:39:26.840Z,3.15
2023-05-15T15:41:54.524Z,3.53
2023-05-15T15:44:23.486Z,3.47
2023-05-15T15:46:50.462Z,3.10
2023-05-15T15:49:17.706Z,3.28
2023-05-15T15:51:44.874Z,3.50
2023-05-15T15:54:12.112Z,4.05
2023-05-15T15:56:40.336Z,3.30
2023-05-15T15:59:07.804Z,4.20
2023-05-15T16:01:34.976Z,3.42
2023-05-15T16:04:02.625Z,3.53
2023-05-15T16:06:29.741Z,3.70
2023-05-15T16:08:57.226Z,3.00
2023-05-15T16:11:24.429Z,3.75
2023-05-15T16:13:52.497Z,3.88
2023-05-15T16:16:19.691Z,3.65
2023-05-15T16:18:47.219Z,3.80
2023-05-15T16:21:14.853Z,4.20
2023-05-15T16:23:42.420Z,3.53
2023-05-15T16:26:10.962Z,3.17
2023-05-15T16:28:38.320Z,3.92
2023-05-15T16:31:05.440Z,4.13
2023-05-15T16:33:33.162Z,3.92
2023-05-15T16:36:00.338Z,3.67
2023-05-15T16:38:27.615Z,4.25
2023-05-15T16:40:54.612Z,3.90
2023-05-15T16:43:22.505Z,3.13
2023-05-15T16:45:49.560Z,3.83
2023-05-15T16:48:16.954Z,3.17
2023-05-15T16:50:44.559Z,3.45
2023-05-15T16:53:12.473Z,3.72
2023-05-15T16:55:39.558Z,3.25
2023-05-15T16:58:06.838Z,3.65
2023-05-15T17:00:33.905Z,3.83
2023-05-15T17:03:01.171Z,3.55
2023-05-15T17:05:28.945Z,3.38
2023-05-15T17:07:56.365Z,3.95
2023-05-15T17:10:23.657Z,3.38
2023-05-15T17:12:51.265Z,3.50
2023-05-15T17:15:18.511Z,4.00
2023-05-15T17:17:46.037Z,4.20
2023-05-15T17:20:13.156Z,4.07
2023-05-15T17:22:40.654Z,3.17
2023-05-15T17:25:08.393Z,3.45
2023-05-15T17:27:39.939Z,4.03
2023-05-15T17:30:12.082Z,4.90
2023-05-15T17:32:40.222Z,4.57
2023-05-15T17:35:08.350Z,4.68
2023-05-15T17:37:35.600Z,3.70
2023-05-15T17:40:02.766Z,4.10
2023-05-15T17:42:30.137Z,3.63
2023-05-15T17:44:57.874Z,4.35
2023-05-15T17:47:25.307Z,6.75
2023-05-15T17:49:52.377Z,4.05
2023-05-15T17:52:19.693Z,8.48
2023-05-15T17:54:46.951Z,6.53
2023-05-15T17:57:14.707Z,4.28
2023-05-15T17:59:42.014Z,3.72
2023-05-15T18:02:09.281Z,4.05
2023-05-15T18:04:36.371Z,4.47
2023-05-15T18:07:03.905Z,4.45
2023-05-15T18:09:30.961Z,4.93
2023-05-15T18:11:58.485Z,4.47
2023-05-15T18:14:25.795Z,4.47
2023-05-15T18:16:53.345Z,4.50
2023-05-15T18:19:20.451Z,5.38
2023-05-15T18:21:48.134Z,4.38
2023-05-15T18:24:15.099Z,4.45
2023-05-15T18:26:42.675Z,4.88
2023-05-15T18:29:09.696Z,4.60
2023-05-15T18:31:37.177Z,4.78
2023-05-15T18:34:04.368Z,7.43
2023-05-15T18:36:31.622Z,5.57
2023-05-15T18:38:58.665Z,5.72
2023-05-15T18:41:27.212Z,5.93
2023-05-15T18:43:54.308Z,5.00
2023-05-15T18:46:21.766Z,5.28
2023-05-15T18:48:48.883Z,5.10
2023-05-15T18:51:16.544Z,5.05
2023-05-15T18:53:43.689Z,5.80
2023-05-15T18:56:11.132Z,5.00
2023-05-15T18:58:38.120Z,5.63
2023-05-15T19:01:06.051Z,6.25
2023-05-15T19:03:36.024Z,6.13
2023-05-15T19:06:03.486Z,5.45
2023-05-15T19:08:30.666Z,4.90
2023-05-15T19:10:59.848Z,5.65
2023-05-15T19:13:32.634Z,5.22
2023-05-15T19:15:59.966Z,7.97
2023-05-15T19:18:27.084Z,6.95
2023-05-15T19:20:54.519Z,5.57
2023-05-15T19:23:21.914Z,4.33
2023-05-15T19:25:51.209Z,6.88
2023-05-15T19:28:18.412Z,4.53
2023-05-15T19:30:45.671Z,4.82
2023-05-15T19:33:16.172Z,6.50
2023-05-15T19:35:44.326Z,5.70
2023-05-15T19:38:11.528Z,6.38
2023-05-15T19:40:38.766Z,6.28
2023-05-15T19:43:05.942Z,5.20
2023-05-15T19:45:33.354Z,6.15
2023-05-15T19:48:02.090Z,6.15
2023-05-15T19:50:30.892Z,5.70
2023-05-15T19:52:59.221Z,6.68
2023-05-15T19:55:27.259Z,5.90
2023-05-15T19:57:56.688Z,5.93
2023-05-15T20:00:25.131Z,6.45
2023-05-15T20:02:53.026Z,6.25
2023-05-15T20:05:20.496Z,5.82
2023-05-15T20:07:47.913Z,6.30
2023-05-15T20:10:19.088Z,6.53
2023-05-15T20:12:47.268Z,5.68
2023-05-15T20:15:15.872Z,5.63
2023-05-15T20:17:44.440Z,5.50
2023-05-15T20:20:12.491Z,4.97
2023-05-15T20:22:44.335Z,6.90
2023-05-15T20:25:12.022Z,6.68
2023-05-15T20:27:41.018Z,6.57
2023-05-15T20:30:19.343Z,9.05
2023-05-15T20:32:58.923Z,6.90
2023-05-15T20:35:28.395Z,6.78
2023-05-15T20:37:57.551Z,6.30
2023-05-15T20:40:28.478Z,6.05
2023-05-15T20:42:57.033Z,5.57
2023-05-15T20:45:24.837Z,6.28
2023-05-15T20:47:52.086Z,5.35
2023-05-15T20:50:19.720Z,5.38
2023-05-15T20:52:47.350Z,6.60
2023-05-15T20:55:17.809Z,5.90
2023-05-15T20:57:49.768Z,7.40
2023-05-15T21:00:18.243Z,7.07
2023-05-15T21:02:46.779Z,7.20
2023-05-15T21:05:15.288Z,6.63
2023-05-15T21:07:43.443Z,7.13
2023-05-15T21:10:11.829Z,6.72
2023-05-15T21:12:43.715Z,7.85
2023-05-15T21:15:11.282Z,7.10
2023-05-15T21:17:38.646Z,8.80
2023-05-15T21:20:07.542Z,7.47
2023-05-15T21:22:34.854Z,8.10
2023-05-15T21:25:02.520Z,17.27
2023-05-15T21:27:30.888Z,7.45
2023-05-15T21:29:59.596Z,7.70
2023-05-15T21:32:32.338Z,9.15
2023-05-15T21:35:02.033Z,7.60
2023-05-15T21:37:29.676Z,7.28
2023-05-15T21:39:56.861Z,6.18
2023-05-15T21:42:24.510Z,6.45
2023-05-15T21:44:51.945Z,6.00
2023-05-15T21:47:19.002Z,5.78
2023-05-15T21:49:46.263Z,5.88
2023-05-15T21:52:14.217Z,5.35
2023-05-15T21:54:43.946Z,6.03
2023-05-15T21:57:11.283Z,5.70
2023-05-15T21:59:41.036Z,5.90
2023-05-15T22:02:08.690Z,5.90
2023-05-15T22:04:36.285Z,5.57
2023-05-15T22:07:03.459Z,5.50
2023-05-15T22:09:31.189Z,5.70
2023-05-15T22:11:58.235Z,5.53
2023-05-15T22:14:25.922Z,6.32
2023-05-15T22:16:53.751Z,6.05
2023-05-15T22:19:32.640Z,5.35
2023-05-15T22:22:03.553Z,6.38
2023-05-15T22:24:31.006Z,5.45
2023-05-15T22:26:58.290Z,5.10
2023-05-15T22:29:26.809Z,6.03
2023-05-15T22:31:53.827Z,5.13
2023-05-15T22:34:23.457Z,6.35
2023-05-15T22:39:20.273Z,5.30
2023-05-15T22:41:47.732Z,4.97
2023-05-15T22:44:18.054Z,5.10
2023-05-15T22:46:45.143Z,5.30
2023-05-15T22:49:23.608Z,5.35
2023-05-15T22:51:55.966Z,4.88
2023-05-15T22:54:23.808Z,4.20
2023-05-15T22:56:52.813Z,4.78
2023-05-15T22:59:21.190Z,4.95
2023-05-15T23:01:49.415Z,5.28
2023-05-15T23:04:18.134Z,4.72
2023-05-15T23:06:45.912Z,5.03
2023-05-15T23:09:13.184Z,4.50
2023-05-15T23:11:40.116Z,5.32
2023-05-15T23:14:08.430Z,5.18
2023-05-15T23:16:36.199Z,5.55
2023-05-15T23:19:04.335Z,5.65
2023-05-15T23:21:31.665Z,4.72
2023-05-15T23:24:02.132Z,5.70
2023-05-15T23:26:33.413Z,4.75
2023-05-15T23:29:05.484Z,5.72
2023-05-15T23:31:33.981Z,5.22
2023-05-15T23:34:05.914Z,5.53
2023-05-15T23:36:34.881Z,5.65
2023-05-15T23:39:05.967Z,6.25
2023-05-15T23:41:33.407Z,5.35
2023-05-15T23:44:01.175Z,5.82
2023-05-15T23:46:28.411Z,6.28
2023-05-15T23:48:55.889Z,6.05
2023-05-15T23:51:23.021Z,5.70
2023-05-15T23:53:50.629Z,5.75
2023-05-15T23:56:17.646Z,5.63
2023-05-15T23:58:44.972Z,5.72
